Time;durP1;ratioP1;P1;durP2;ratioP2;P2;SDS_P1;SDS_P2;PMS_P1;PMS_P2;Temp;Humidity;BMP_temperature;BMP_pressure;BME280_temperature;BME280_humidity;BME280_pressure;Samples;Min_cycle;Max_cycle;Signal;HPM_P1;HPM_P2
2022/05/14 20:03:28;;;;;;;29.87;17.67;;;;;;;-143.84;97.21;43744.97;5133523;27;20355;-76
2022/05/14 20:05:56;;;;;;;59.47;33.43;;;;;;;-143.84;96.67;43758.28;5118198;27;20483;-75
2022/05/14 20:08:24;;;;;;;92.87;45.53;;;;;;;-143.84;94.40;43691.66;5114143;28;20827;-70
2022/05/14 20:10:52;;;;;;;140.40;88.70;;;;;;;-143.84;93.23;43705.00;5120734;27;20478;-72
2022/05/14 20:13:21;;;;;;;62.53;38.00;;;;;;;-143.84;91.44;43866.78;5118808;28;20450;-73
2022/05/14 20:15:49;;;;;;;211.10;105.73;;;;;;;-143.84;89.79;44097.13;5119749;28;20456;-73
2022/05/14 20:21:05;;;;;;;45.50;26.03;;;;;;;-143.84;84.75;44778.69;5121482;28;20440;-73
2022/05/14 20:23:35;;;;;;;24.13;12.87;;;;;;;-143.84;82.92;44881.50;5118247;28;20983;-77
2022/05/14 20:26:04;;;;;;;7.23;5.93;;;;;;;-143.84;82.64;44894.84;5113396;28;20916;-77
2022/05/14 20:28:32;;;;;;;13.03;5.60;;;;;;;-143.84;81.87;44936.72;5117719;28;20442;-77
2022/05/14 20:31:00;;;;;;;9.87;6.00;;;;;;;-143.84;79.65;44925.31;5117405;27;20431;-77
2022/05/14 20:33:28;;;;;;;6.73;6.20;;;;;;;-143.84;77.89;44950.06;5118781;27;20449;-73
2022/05/14 20:35:55;;;;;;;8.40;7.70;;;;;;;-143.84;81.92;44919.59;5120533;28;20951;-71
2022/05/14 20:38:24;;;;;;;7.07;6.47;;;;;;;-143.84;81.04;44950.06;5117949;28;20439;-74
2022/05/14 20:40:51;;;;;;;7.50;5.97;;;;;;;-143.84;81.56;44902.44;5123541;28;20448;-72
2022/05/14 20:43:19;;;;;;;11.07;5.10;;;;;;;-143.84;80.56;44944.34;5116514;28;20516;-73
2022/05/14 20:45:47;;;;;;;6.60;6.10;;;;;;;-143.84;81.07;44934.81;5113446;28;20504;-72
2022/05/14 20:48:14;;;;;;;26.93;5.50;;;;;;;-143.84;80.88;44915.78;5126558;27;20450;-75
2022/05/14 20:50:42;;;;;;;11.90;6.57;;;;;;;-143.84;80.70;44971.00;5120890;28;20446;-78
2022/05/14 20:53:10;;;;;;;19.50;6.10;;;;;;;-143.84;79.51;44972.91;5121239;28;20444;-74
2022/05/14 20:55:38;;;;;;;8.23;6.87;;;;;;;-143.84;79.11;44950.06;5120603;28;20559;-72
2022/05/14 20:58:06;;;;;;;36.93;25.60;;;;;;;-143.84;79.56;44963.38;5116234;28;20435;-76
2022/05/14 21:00:33;;;;;;;417.43;376.33;;;;;;;-143.84;79.81;44955.75;5120160;27;20442;-72
2022/05/14 21:03:01;;;;;;;134.17;120.77;;;;;;;-143.84;79.47;44986.22;5116138;27;20497;-71
2022/05/14 21:05:30;;;;;;;7.90;5.30;;;;;;;-143.84;78.02;44980.53;5118845;28;20450;-73
2022/05/14 21:07:57;;;;;;;8.57;4.90;;;;;;;-143.84;75.76;44997.66;5116489;28;20949;-74
2022/05/14 21:10:25;;;;;;;6.07;5.40;;;;;;;-143.84;78.20;44991.94;5120577;28;20485;-75
2022/05/14 21:12:54;;;;;;;9.67;5.67;;;;;;;-143.84;78.76;44971.00;5116367;27;20454;-73
2022/05/14 21:15:23;;;;;;;155.93;139.60;;;;;;;-143.84;79.37;44950.06;5108300;28;20457;-80
2022/05/14 21:17:51;;;;;;;49.57;44.73;;;;;;;-143.84;79.95;44946.25;5109814;28;20932;-73
2022/05/14 21:20:18;;;;;;;7.03;6.20;;;;;;;-143.84;78.57;44961.47;5105067;27;20456;-73
2022/05/14 21:22:46;;;;;;;6.17;5.60;;;;;;;-143.84;77.86;44976.72;5109188;28;20467;-78
2022/05/14 21:25:15;;;;;;;8.80;6.03;;;;;;;-143.84;76.60;44972.91;5101162;28;20436;-71
2022/05/14 21:27:42;;;;;;;6.80;5.40;;;;;;;-143.84;77.30;44999.56;5101775;28;20437;-75
2022/05/14 21:30:13;;;;;;;6.83;5.90;;;;;;;-143.84;77.17;44984.31;5105690;28;20443;-70
2022/05/14 21:32:41;;;;;;;7.50;6.50;;;;;;;-143.84;77.13;44957.66;5102226;28;20459;-70
2022/05/14 21:37:53;;;;;;;10.20;6.80;;;;;;;-143.84;77.59;44993.84;5105956;28;20419;-73
2022/05/14 21:40:22;;;;;;;11.93;5.57;;;;;;;-143.84;77.46;44963.38;5101564;28;20450;-76
2022/05/14 21:42:52;;;;;;;6.73;5.63;;;;;;;-143.84;76.66;44974.81;5110066;28;20474;-80
2022/05/14 21:45:23;;;;;;;10.93;6.07;;;;;;;-143.84;76.81;45007.19;5107450;28;20822;-77
2022/05/14 21:47:51;;;;;;;9.93;5.93;;;;;;;-143.84;76.71;44991.94;5102814;28;20448;-74
2022/05/14 21:50:18;;;;;;;23.60;16.70;;;;;;;-143.84;76.63;44984.31;5104108;28;20451;-77
2022/05/14 21:52:47;;;;;;;6.70;6.10;;;;;;;-143.84;76.51;44969.09;5103301;28;20454;-76
2022/05/14 21:55:19;;;;;;;5.73;5.20;;;;;;;-143.84;76.08;45016.69;5104348;28;20448;-75
2022/05/14 21:57:46;;;;;;;5.47;4.97;;;;;;;-143.84;76.84;44976.72;5101583;28;20446;-79
2022/05/14 22:00:47;;;;;;;9.47;5.37;;;;;;;-143.84;76.41;44995.75;5106601;28;20443;-72
2022/05/14 22:03:19;;;;;;;8.30;6.03;;;;;;;-143.84;76.81;44993.84;5092655;28;20491;-72
2022/05/14 22:05:47;;;;;;;7.03;5.77;;;;;;;-143.84;78.17;44984.31;5092842;28;20959;-74
2022/05/14 22:08:15;;;;;;;6.23;5.60;;;;;;;-143.84;78.82;44961.47;5092873;28;20509;-78
2022/05/14 22:10:43;;;;;;;12.93;5.83;;;;;;;-143.84;78.15;44986.22;5099807;28;20552;-71
2022/05/14 22:13:12;;;;;;;7.10;5.60;;;;;;;-143.84;78.71;44971.00;5110306;28;20558;-73
2022/05/14 22:15:41;;;;;;;8.57;6.03;;;;;;;-143.84;79.14;44995.75;5109212;28;20461;-81
2022/05/14 22:18:09;;;;;;;6.20;5.67;;;;;;;-143.84;79.23;44965.28;5113136;28;20548;-73
2022/05/14 22:20:38;;;;;;;16.70;7.67;;;;;;;-143.84;80.08;44984.31;5112108;28;20451;-74
2022/05/14 22:23:05;;;;;;;15.23;9.87;;;;;;;-143.84;82.55;44936.72;5113078;28;20995;-73
2022/05/14 22:25:32;;;;;;;13.70;9.37;;;;;;;-143.84;82.98;44946.25;5110782;28;20443;-72
2022/05/14 22:28:00;;;;;;;12.37;7.90;;;;;;;-143.84;82.87;44948.16;5112153;28;20430;-72
2022/05/14 22:30:27;;;;;;;11.17;8.53;;;;;;;-143.84;82.78;44946.25;5112186;28;20446;-74
2022/05/14 22:32:54;;;;;;;8.67;7.87;;;;;;;-143.84;81.70;44957.66;5109480;28;20462;-72
2022/05/14 22:35:21;;;;;;;13.70;7.70;;;;;;;-143.84;81.41;44965.28;5111239;28;20533;-73
2022/05/14 22:37:50;;;;;;;10.03;7.83;;;;;;;-143.84;81.21;44988.13;5111328;28;20496;-72
2022/05/14 22:43:05;;;;;;;7.17;6.67;;;;;;;-143.84;80.41;44965.28;5099540;28;20478;-72
2022/05/14 22:45:33;;;;;;;8.23;7.53;;;;;;;-143.84;80.36;44984.31;5101632;28;20435;-74
2022/05/14 22:48:00;;;;;;;8.97;6.83;;;;;;;-143.84;79.96;44984.31;5098998;28;20424;-72
2022/05/14 22:50:28;;;;;;;8.57;6.60;;;;;;;-143.84;79.51;44978.63;5099924;28;20511;-73
2022/05/14 22:52:59;;;;;;;11.47;7.50;;;;;;;-143.84;79.48;45001.47;5108489;28;20443;-73
2022/05/14 22:55:27;;;;;;;7.47;6.87;;;;;;;-143.84;78.21;45028.13;5110082;28;20507;-73
2022/05/14 22:57:54;;;;;;;7.83;6.90;;;;;;;-143.84;76.89;45005.28;5110400;28;20451;-72
2022/05/14 23:00:22;;;;;;;6.60;6.00;;;;;;;-143.84;76.38;45007.19;5110531;28;20427;-73
2022/05/14 23:02:50;;;;;;;7.33;6.63;;;;;;;-143.84;76.53;45012.88;5110448;28;20490;-72
2022/05/14 23:05:20;;;;;;;7.23;6.53;;;;;;;-143.84;76.75;44993.84;5110788;28;20947;-73
2022/05/14 23:07:47;;;;;;;8.23;7.50;;;;;;;-143.84;76.92;45033.84;5111112;28;20447;-73
2022/05/14 23:10:16;;;;;;;9.83;6.90;;;;;;;-143.84;77.34;44982.41;5110762;28;20443;-72
2022/05/14 23:12:43;;;;;;;12.50;6.97;;;;;;;-143.84;76.95;45001.47;5110510;28;20462;-73
2022/05/14 23:15:12;;;;;;;15.00;6.47;;;;;;;-143.84;77.00;44999.56;5109276;28;20533;-72
2022/05/14 23:17:39;;;;;;;7.83;7.00;;;;;;;-143.84;77.22;44995.75;5110482;28;20435;-72
2022/05/14 23:20:09;;;;;;;12.00;7.23;;;;;;;-143.84;77.86;44986.22;5110606;28;20435;-73
2022/05/14 23:22:39;;;;;;;7.00;6.47;;;;;;;-143.84;77.98;45022.41;5110799;28;20482;-72
2022/05/14 23:25:09;;;;;;;8.47;6.13;;;;;;;-143.84;77.74;45014.78;5110393;28;20443;-72
2022/05/14 23:27:38;;;;;;;6.47;5.83;;;;;;;-143.84;77.60;44995.75;5110731;28;20498;-72
2022/05/14 23:30:07;;;;;;;8.00;5.80;;;;;;;-143.84;77.37;44984.31;5110269;28;20537;-72
2022/05/14 23:32:36;;;;;;;7.07;5.90;;;;;;;-143.84;76.75;44980.53;5110552;28;20447;-72
2022/05/14 23:35:03;;;;;;;5.90;5.40;;;;;;;-143.84;76.75;45001.47;5110669;27;21231;-72
2022/05/14 23:37:30;;;;;;;6.70;5.30;;;;;;;-143.84;76.46;45018.59;5110289;28;20435;-72
2022/05/14 23:39:59;;;;;;;10.10;6.30;;;;;;;-143.84;76.81;45018.59;5110595;28;21345;-72
2022/05/14 23:42:27;;;;;;;6.67;5.70;;;;;;;-143.84;77.06;44999.56;5110377;28;20517;-72
2022/05/14 23:44:56;;;;;;;7.77;5.63;;;;;;;-143.84;76.21;44999.56;5110756;28;20495;-72
2022/05/14 23:47:23;;;;;;;5.43;4.90;;;;;;;-143.84;75.64;44984.31;5110357;28;20446;-72
2022/05/14 23:49:50;;;;;;;7.07;5.10;;;;;;;-143.84;75.41;45016.69;5110304;28;20471;-72
2022/05/14 23:52:18;;;;;;;5.30;4.90;;;;;;;-143.84;76.08;45022.41;5110301;28;20936;-72
2022/05/14 23:54:45;;;;;;;7.03;5.23;;;;;;;-143.84;76.28;45026.22;5110388;28;20817;-72
2022/05/14 23:57:12;;;;;;;6.33;5.17;;;;;;;-143.84;78.96;44999.56;5110135;28;21229;-72
